sensor_id;sensor_type;location;lat;lon;timestamp;pressure;altitude;pressure_sealevel;temperature
41654;BMP280;68687;52.030;7.110;2023-04-01T00:00:55;98511.06;;;8.72
41654;BMP280;68687;52.030;7.110;2023-04-01T00:03:22;98519.09;;;8.72
41654;BMP280;68687;52.030;7.110;2023-04-01T00:05:48;98513.59;;;8.67
41654;BMP280;68687;52.030;7.110;2023-04-01T00:08:14;98508.16;;;8.74
41654;BMP280;68687;52.030;7.110;2023-04-01T00:10:40;98505.13;;;8.70
41654;BMP280;68687;52.030;7.110;2023-04-01T00:13:06;98510.91;;;8.67
41654;BMP280;68687;52.030;7.110;2023-04-01T00:15:32;98509.66;;;8.70
41654;BMP280;68687;52.030;7.110;2023-04-01T00:17:57;98514.50;;;8.61
41654;BMP280;68687;52.030;7.110;2023-04-01T00:20:23;98501.94;;;8.61
41654;BMP280;68687;52.030;7.110;2023-04-01T00:22:49;98509.06;;;8.67
41654;BMP280;68687;52.030;7.110;2023-04-01T00:25:14;98506.53;;;8.73
41654;BMP280;68687;52.030;7.110;2023-04-01T00:27:40;98506.63;;;8.66
41654;BMP280;68687;52.030;7.110;2023-04-01T00:30:06;98508.84;;;8.69
41654;BMP280;68687;52.030;7.110;2023-04-01T00:32:32;98503.94;;;8.66
41654;BMP280;68687;52.030;7.110;2023-04-01T00:34:57;98504.97;;;8.65
41654;BMP280;68687;52.030;7.110;2023-04-01T00:37:26;98509.66;;;8.70
41654;BMP280;68687;52.030;7.110;2023-04-01T00:39:52;98500.81;;;8.69
41654;BMP280;68687;52.030;7.110;2023-04-01T00:42:18;98505.72;;;8.72
41654;BMP280;68687;52.030;7.110;2023-04-01T00:44:47;98506.63;;;8.66
41654;BMP280;68687;52.030;7.110;2023-04-01T00:47:13;98496.66;;;8.73
41654;BMP280;68687;52.030;7.110;2023-04-01T00:49:43;98504.97;;;8.65
41654;BMP280;68687;52.030;7.110;2023-04-01T00:52:11;98493.53;;;8.58
41654;BMP280;68687;52.030;7.110;2023-04-01T00:54:38;98494.38;;;8.58
41654;BMP280;68687;52.030;7.110;2023-04-01T00:57:15;98492.50;;;8.77
41654;BMP280;68687;52.030;7.110;2023-04-01T00:59:46;98499.19;;;8.68
41654;BMP280;68687;52.030;7.110;2023-04-01T01:02:14;98496.28;;;8.70
41654;BMP280;68687;52.030;7.110;2023-04-01T01:04:39;98500.38;;;8.72
41654;BMP280;68687;52.030;7.110;2023-04-01T01:10:15;98493.38;;;8.71
41654;BMP280;68687;52.030;7.110;2023-04-01T01:12:55;98494.19;;;8.72
41654;BMP280;68687;52.030;7.110;2023-04-01T01:15:30;98490.19;;;8.62
41654;BMP280;68687;52.030;7.110;2023-04-01T01:37:09;98470.88;;;8.60
41654;BMP280;68687;52.030;7.110;2023-04-01T01:39:36;98480.53;;;8.61
41654;BMP280;68687;52.030;7.110;2023-04-01T01:42:06;98471.69;;;8.61
41654;BMP280;68687;52.030;7.110;2023-04-01T01:44:34;98474.09;;;8.51
41654;BMP280;68687;52.030;7.110;2023-04-01T01:47:01;98468.44;;;8.59
41654;BMP280;68687;52.030;7.110;2023-04-01T01:49:27;98469.34;;;8.53
41654;BMP280;68687;52.030;7.110;2023-04-01T01:51:55;98472.59;;;8.55
41654;BMP280;68687;52.030;7.110;2023-04-01T01:54:21;98467.09;;;8.50
41654;BMP280;68687;52.030;7.110;2023-04-01T01:56:49;98469.97;;;8.48
41654;BMP280;68687;52.030;7.110;2023-04-01T01:59:18;98475.13;;;8.50
41654;BMP280;68687;52.030;7.110;2023-04-01T02:01:49;98471.84;;;8.48
41654;BMP280;68687;52.030;7.110;2023-04-01T02:04:16;98469.78;;;8.50
41654;BMP280;68687;52.030;7.110;2023-04-01T02:06:47;98471.41;;;8.51
41654;BMP280;68687;52.030;7.110;2023-04-01T02:09:15;98476.00;;;8.44
41654;BMP280;68687;52.030;7.110;2023-04-01T02:11:52;98473.09;;;8.45
41654;BMP280;68687;52.030;7.110;2023-04-01T02:14:22;98477.63;;;8.45
41654;BMP280;68687;52.030;7.110;2023-04-01T02:16:56;98480.31;;;8.45
41654;BMP280;68687;52.030;7.110;2023-04-01T02:19:27;98479.72;;;8.43
41654;BMP280;68687;52.030;7.110;2023-04-01T02:21:57;98476.00;;;8.44
41654;BMP280;68687;52.030;7.110;2023-04-01T02:24:26;98481.34;;;8.44
41654;BMP280;68687;52.030;7.110;2023-04-01T02:26:53;98487.69;;;8.49
41654;BMP280;68687;52.030;7.110;2023-04-01T02:29:23;98477.69;;;8.38
41654;BMP280;68687;52.030;7.110;2023-04-01T02:31:50;98470.28;;;8.40
41654;BMP280;68687;52.030;7.110;2023-04-01T02:34:16;98480.91;;;8.47
41654;BMP280;68687;52.030;7.110;2023-04-01T02:36:42;98470.50;;;8.39
41654;BMP280;68687;52.030;7.110;2023-04-01T02:39:08;98480.31;;;8.45
41654;BMP280;68687;52.030;7.110;2023-04-01T02:41:40;98488.31;;;8.45
41654;BMP280;68687;52.030;7.110;2023-04-01T02:44:06;98478.63;;;8.50
41654;BMP280;68687;52.030;7.110;2023-04-01T02:46:32;98477.41;;;8.46
41654;BMP280;68687;52.030;7.110;2023-04-01T02:48:57;98483.16;;;8.50
41654;BMP280;68687;52.030;7.110;2023-04-01T02:51:22;98489.50;;;8.49
41654;BMP280;68687;52.030;7.110;2023-04-01T02:53:48;98490.78;;;8.46
41654;BMP280;68687;52.030;7.110;2023-04-01T02:56:13;98477.63;;;8.45
41654;BMP280;68687;52.030;7.110;2023-04-01T02:58:38;98479.47;;;8.44
41654;BMP280;68687;52.030;7.110;2023-04-01T03:01:03;98482.16;;;8.44
41654;BMP280;68687;52.030;7.110;2023-04-01T03:03:29;98486.69;;;8.44
41654;BMP280;68687;52.030;7.110;2023-04-01T03:05:54;98487.59;;;8.56
41654;BMP280;68687;52.030;7.110;2023-04-01T03:08:23;98488.31;;;8.45
41654;BMP280;68687;52.030;7.110;2023-04-01T03:10:49;98492.19;;;8.49
41654;BMP280;68687;52.030;7.110;2023-04-01T03:13:14;98492.03;;;8.44
41654;BMP280;68687;52.030;7.110;2023-04-01T03:15:40;98491.22;;;8.43
41654;BMP280;68687;52.030;7.110;2023-04-01T03:18:05;98495.31;;;8.46
41654;BMP280;68687;52.030;7.110;2023-04-01T03:20:30;98497.13;;;8.52
41654;BMP280;68687;52.030;7.110;2023-04-01T03:22:55;98502.47;;;8.52
41654;BMP280;68687;52.030;7.110;2023-04-01T03:25:21;98501.19;;;8.54
41654;BMP280;68687;52.030;7.110;2023-04-01T03:27:46;98495.25;;;8.52
41654;BMP280;68687;52.030;7.110;2023-04-01T03:30:11;98498.91;;;8.58
41654;BMP280;68687;52.030;7.110;2023-04-01T03:32:37;98507.59;;;8.53
41654;BMP280;68687;52.030;7.110;2023-04-01T03:35:02;98507.97;;;8.57
41654;BMP280;68687;52.030;7.110;2023-04-01T03:37:28;98509.44;;;8.53
41654;BMP280;68687;52.030;7.110;2023-04-01T03:39:53;98511.22;;;8.59
41654;BMP280;68687;52.030;7.110;2023-04-01T03:42:18;98500.38;;;8.54
41654;BMP280;68687;52.030;7.110;2023-04-01T03:44:44;98510.31;;;8.65
41654;BMP280;68687;52.030;7.110;2023-04-01T03:47:09;98513.75;;;8.54
41654;BMP280;68687;52.030;7.110;2023-04-01T03:49:35;98510.19;;;8.60
41654;BMP280;68687;52.030;7.110;2023-04-01T03:52:00;98518.22;;;8.60
41654;BMP280;68687;52.030;7.110;2023-04-01T03:54:25;98517.75;;;8.63
41654;BMP280;68687;52.030;7.110;2023-04-01T03:56:51;98518.88;;;8.55
41654;BMP280;68687;52.030;7.110;2023-04-01T03:59:16;98511.56;;;8.44
41654;BMP280;68687;52.030;7.110;2023-04-01T04:01:41;98524.22;;;8.55
41654;BMP280;68687;52.030;7.110;2023-04-01T04:04:07;98528.69;;;8.61
41654;BMP280;68687;52.030;7.110;2023-04-01T04:06:35;98524.59;;;8.59
41654;BMP280;68687;52.030;7.110;2023-04-01T04:09:00;98533.66;;;8.58
41654;BMP280;68687;52.030;7.110;2023-04-01T04:11:25;98529.03;;;8.47
41654;BMP280;68687;52.030;7.110;2023-04-01T04:13:51;98525.19;;;8.61
41654;BMP280;68687;52.030;7.110;2023-04-01T04:16:17;98534.84;;;8.62
41654;BMP280;68687;52.030;7.110;2023-04-01T04:18:42;98531.81;;;8.58
41654;BMP280;68687;52.030;7.110;2023-04-01T04:21:12;98534.09;;;8.55
41654;BMP280;68687;52.030;7.110;2023-04-01T04:23:37;98535.59;;;8.51
41654;BMP280;68687;52.030;7.110;2023-04-01T04:26:06;98534.69;;;8.57
41654;BMP280;68687;52.030;7.110;2023-04-01T04:28:32;98537.00;;;8.53
41654;BMP280;68687;52.030;7.110;2023-04-01T04:30:57;98534.97;;;8.49
41654;BMP280;68687;52.030;7.110;2023-04-01T04:33:23;98546.00;;;8.59
41654;BMP280;68687;52.030;7.110;2023-04-01T04:35:49;98540.88;;;8.57
41654;BMP280;68687;52.030;7.110;2023-04-01T04:38:15;98543.38;;;8.52
41654;BMP280;68687;52.030;7.110;2023-04-01T04:40:41;98542.13;;;8.55
41654;BMP280;68687;52.030;7.110;2023-04-01T04:43:11;98552.75;;;8.61
41654;BMP280;68687;52.030;7.110;2023-04-01T04:45:36;98544.06;;;8.66
41654;BMP280;68687;52.030;7.110;2023-04-01T04:48:02;98550.44;;;8.65
41654;BMP280;68687;52.030;7.110;2023-04-01T04:50:27;98552.38;;;8.58
41654;BMP280;68687;52.030;7.110;2023-04-01T04:52:52;98558.19;;;8.55
41654;BMP280;68687;52.030;7.110;2023-04-01T04:55:18;98563.38;;;8.50
41654;BMP280;68687;52.030;7.110;2023-04-01T04:57:43;98555.34;;;8.50
41654;BMP280;68687;52.030;7.110;2023-04-01T05:00:09;98570.88;;;8.59
41654;BMP280;68687;52.030;7.110;2023-04-01T05:02:38;98565.16;;;8.56
41654;BMP280;68687;52.030;7.110;2023-04-01T05:05:03;98566.41;;;8.53
41654;BMP280;68687;52.030;7.110;2023-04-01T05:07:29;98568.06;;;8.54
41654;BMP280;68687;52.030;7.110;2023-04-01T05:09:54;98574.81;;;8.57
41654;BMP280;68687;52.030;7.110;2023-04-01T05:12:20;98564.59;;;8.47
41654;BMP280;68687;52.030;7.110;2023-04-01T05:14:45;98570.94;;;8.53
41654;BMP280;68687;52.030;7.110;2023-04-01T05:17:12;98583.00;;;8.62
41654;BMP280;68687;52.030;7.110;2023-04-01T05:19:38;98576.53;;;8.70
41654;BMP280;68687;52.030;7.110;2023-04-01T05:22:04;98582.84;;;8.57
41654;BMP280;68687;52.030;7.110;2023-04-01T05:24:30;98589.97;;;8.63
41654;BMP280;68687;52.030;7.110;2023-04-01T05:26:55;98581.66;;;8.53
41654;BMP280;68687;52.030;7.110;2023-04-01T05:29:22;98591.00;;;8.62
41654;BMP280;68687;52.030;7.110;2023-04-01T05:31:47;98588.63;;;8.54
41654;BMP280;68687;52.030;7.110;2023-04-01T05:34:13;98591.75;;;8.69
41654;BMP280;68687;52.030;7.110;2023-04-01T05:36:38;98588.78;;;8.59
41654;BMP280;68687;52.030;7.110;2023-04-01T05:39:03;98590.47;;;8.53
41654;BMP280;68687;52.030;7.110;2023-04-01T05:41:29;98602.16;;;8.59
41654;BMP280;68687;52.030;7.110;2023-04-01T05:43:54;98603.78;;;8.60
41654;BMP280;68687;52.030;7.110;2023-04-01T05:46:20;98604.53;;;8.67
41654;BMP280;68687;52.030;7.110;2023-04-01T05:48:45;98611.97;;;8.65
41654;BMP280;68687;52.030;7.110;2023-04-01T05:51:13;98597.09;;;8.51
41654;BMP280;68687;52.030;7.110;2023-04-01T05:53:39;98601.72;;;8.62
41654;BMP280;68687;52.030;7.110;2023-04-01T05:56:04;98606.31;;;8.55
41654;BMP280;68687;52.030;7.110;2023-04-01T05:58:30;98613.31;;;8.74
41654;BMP280;68687;52.030;7.110;2023-04-01T06:01:06;98612.25;;;8.57
41654;BMP280;68687;52.030;7.110;2023-04-01T06:03:32;98615.38;;;8.54
41654;BMP280;68687;52.030;7.110;2023-04-01T06:05:57;98617.75;;;8.62
41654;BMP280;68687;52.030;7.110;2023-04-01T06:08:23;98614.78;;;8.52
41654;BMP280;68687;52.030;7.110;2023-04-01T06:19:30;98629.88;;;8.64
41654;BMP280;68687;52.030;7.110;2023-04-01T06:27:46;98634.25;;;8.59
41654;BMP280;68687;52.030;7.110;2023-04-01T06:36:19;98645.47;;;8.67
41654;BMP280;68687;52.030;7.110;2023-04-01T06:38:53;98643.19;;;8.71
41654;BMP280;68687;52.030;7.110;2023-04-01T06:41:43;98648.53;;;8.71
41654;BMP280;68687;52.030;7.110;2023-04-01T06:44:24;98650.53;;;8.76
41654;BMP280;68687;52.030;7.110;2023-04-01T06:46:59;98648.28;;;8.79
41654;BMP280;68687;52.030;7.110;2023-04-01T06:52:54;98642.03;;;8.85
41654;BMP280;68687;52.030;7.110;2023-04-01T06:55:41;98652.72;;;8.85
41654;BMP280;68687;52.030;7.110;2023-04-01T06:58:18;98650.50;;;8.82
41654;BMP280;68687;52.030;7.110;2023-04-01T07:00:46;98655.56;;;8.90
41654;BMP280;68687;52.030;7.110;2023-04-01T07:06:05;98656.59;;;8.89
41654;BMP280;68687;52.030;7.110;2023-04-01T07:08:35;98664.94;;;8.99
41654;BMP280;68687;52.030;7.110;2023-04-01T07:11:03;98660.84;;;8.97
41654;BMP280;68687;52.030;7.110;2023-04-01T07:13:37;98664.94;;;8.99
41654;BMP280;68687;52.030;7.110;2023-04-01T07:16:25;98661.06;;;8.95
41654;BMP280;68687;52.030;7.110;2023-04-01T07:19:12;98663.41;;;9.10
41654;BMP280;68687;52.030;7.110;2023-04-01T07:21:46;98677.00;;;9.09
41654;BMP280;68687;52.030;7.110;2023-04-01T07:24:21;98670.66;;;9.03
41654;BMP280;68687;52.030;7.110;2023-04-01T07:26:53;98674.78;;;9.06
41654;BMP280;68687;52.030;7.110;2023-04-01T07:29:20;98675.41;;;9.01
41654;BMP280;68687;52.030;7.110;2023-04-01T07:34:29;98675.38;;;9.08
41654;BMP280;68687;52.030;7.110;2023-04-01T07:37:15;98675.59;;;9.06
41654;BMP280;68687;52.030;7.110;2023-04-01T07:42:54;98691.00;;;9.11
41654;BMP280;68687;52.030;7.110;2023-04-01T07:46:08;98688.09;;;9.12
41654;BMP280;68687;52.030;7.110;2023-04-01T07:49:04;98691.00;;;9.11
41654;BMP280;68687;52.030;7.110;2023-04-01T07:57:00;98699.19;;;9.34
41654;BMP280;68687;52.030;7.110;2023-04-01T07:59:42;98713.78;;;9.38
41654;BMP280;68687;52.030;7.110;2023-04-01T08:02:25;98709.31;;;9.32
41654;BMP280;68687;52.030;7.110;2023-04-01T08:07:20;98719.56;;;9.35
41654;BMP280;68687;52.030;7.110;2023-04-01T08:12:58;98712.34;;;9.36
41654;BMP280;68687;52.030;7.110;2023-04-01T08:15:31;98718.09;;;9.39
41654;BMP280;68687;52.030;7.110;2023-04-01T08:18:19;98723.44;;;9.39
41654;BMP280;68687;52.030;7.110;2023-04-01T08:20:56;98723.00;;;9.42
41654;BMP280;68687;52.030;7.110;2023-04-01T08:23:47;98730.66;;;9.39
41654;BMP280;68687;52.030;7.110;2023-04-01T08:26:36;98731.47;;;9.39
41654;BMP280;68687;52.030;7.110;2023-04-01T08:29:13;98724.94;;;9.35
41654;BMP280;68687;52.030;7.110;2023-04-01T08:31:48;98739.00;;;9.49
41654;BMP280;68687;52.030;7.110;2023-04-01T08:34:19;98744.72;;;9.52
41654;BMP280;68687;52.030;7.110;2023-04-01T08:37:11;98747.84;;;9.49
41654;BMP280;68687;52.030;7.110;2023-04-01T08:39:42;98742.47;;;9.49
41654;BMP280;68687;52.030;7.110;2023-04-01T08:45:21;98752.31;;;9.55
41654;BMP280;68687;52.030;7.110;2023-04-01T08:47:56;98746.56;;;9.52
41654;BMP280;68687;52.030;7.110;2023-04-01T08:53:25;98757.81;;;9.79
41654;BMP280;68687;52.030;7.110;2023-04-01T08:56:26;98754.72;;;9.64
41654;BMP280;68687;52.030;7.110;2023-04-01T08:59:09;98761.16;;;9.74
41654;BMP280;68687;52.030;7.110;2023-04-01T09:02:00;98767.03;;;9.83
41654;BMP280;68687;52.030;7.110;2023-04-01T09:05:05;98773.75;;;9.92
41654;BMP280;68687;52.030;7.110;2023-04-01T09:07:48;98770.63;;;9.95
41654;BMP280;68687;52.030;7.110;2023-04-01T09:10:28;98776.91;;;9.89
41654;BMP280;68687;52.030;7.110;2023-04-01T09:16:13;98780.13;;;10.09
41654;BMP280;68687;52.030;7.110;2023-04-01T09:27:28;98791.63;;;10.16
41654;BMP280;68687;52.030;7.110;2023-04-01T09:35:25;98800.56;;;10.29
41654;BMP280;68687;52.030;7.110;2023-04-01T09:46:43;98809.06;;;10.26
41654;BMP280;68687;52.030;7.110;2023-04-01T09:52:24;98815.06;;;10.39
41654;BMP280;68687;52.030;7.110;2023-04-01T09:55:30;98817.63;;;10.64
41654;BMP280;68687;52.030;7.110;2023-04-01T10:01:14;98821.53;;;10.80
41654;BMP280;68687;52.030;7.110;2023-04-01T10:15:33;98848.28;;;10.87
41654;BMP280;68687;52.030;7.110;2023-04-01T10:21:22;98855.97;;;10.83
41654;BMP280;68687;52.030;7.110;2023-04-01T10:27:02;98856.50;;;11.03
41654;BMP280;68687;52.030;7.110;2023-04-01T10:29:59;98854.97;;;10.96
41654;BMP280;68687;52.030;7.110;2023-04-01T10:46:45;98866.72;;;10.95
41654;BMP280;68687;52.030;7.110;2023-04-01T11:06:00;98873.56;;;11.21
41654;BMP280;68687;52.030;7.110;2023-04-01T11:19:38;98890.06;;;11.24
41654;BMP280;68687;52.030;7.110;2023-04-01T11:31:17;98903.06;;;11.39
41654;BMP280;68687;52.030;7.110;2023-04-01T11:34:13;98902.59;;;11.42
41654;BMP280;68687;52.030;7.110;2023-04-01T11:39:59;98918.22;;;11.33
41654;BMP280;68687;52.030;7.110;2023-04-01T11:42:45;98925.59;;;11.50
41654;BMP280;68687;52.030;7.110;2023-04-01T11:45:28;98919.00;;;11.64
41654;BMP280;68687;52.030;7.110;2023-04-01T11:53:56;98932.72;;;11.32
41654;BMP280;68687;52.030;7.110;2023-04-01T12:04:55;98949.69;;;11.14
41654;BMP280;68687;52.030;7.110;2023-04-01T12:10:40;98949.22;;;11.48
41654;BMP280;68687;52.030;7.110;2023-04-01T12:18:56;98960.13;;;11.53
41654;BMP280;68687;52.030;7.110;2023-04-01T12:21:35;98966.91;;;11.67
41654;BMP280;68687;52.030;7.110;2023-04-01T12:24:25;98965.97;;;11.61
41654;BMP280;68687;52.030;7.110;2023-04-01T12:32:41;98970.25;;;11.81
41654;BMP280;68687;52.030;7.110;2023-04-01T12:35:18;98977.38;;;11.98
41654;BMP280;68687;52.030;7.110;2023-04-01T12:41:14;98990.25;;;11.96
41654;BMP280;68687;52.030;7.110;2023-04-01T12:47:00;99001.03;;;12.08
41654;BMP280;68687;52.030;7.110;2023-04-01T13:00:48;99008.25;;;12.54
41654;BMP280;68687;52.030;7.110;2023-04-01T13:03:32;99014.00;;;12.58
41654;BMP280;68687;52.030;7.110;2023-04-01T13:06:20;99017.06;;;12.61
41654;BMP280;68687;52.030;7.110;2023-04-01T13:09:29;99020.91;;;12.42
41654;BMP280;68687;52.030;7.110;2023-04-01T13:15:01;99027.53;;;11.93
41654;BMP280;68687;52.030;7.110;2023-04-01T13:17:39;99033.50;;;11.83
41654;BMP280;68687;52.030;7.110;2023-04-01T13:20:19;99036.88;;;11.79
41654;BMP280;68687;52.030;7.110;2023-04-01T13:26:18;99046.50;;;11.68
41654;BMP280;68687;52.030;7.110;2023-04-01T13:29:04;99059.53;;;11.53
41654;BMP280;68687;52.030;7.110;2023-04-01T13:31:40;99055.59;;;11.37
41654;BMP280;68687;52.030;7.110;2023-04-01T13:42:49;99068.81;;;11.20
41654;BMP280;68687;52.030;7.110;2023-04-01T13:45:23;99068.22;;;11.18
41654;BMP280;68687;52.030;7.110;2023-04-01T13:48:17;99068.44;;;11.17
41654;BMP280;68687;52.030;7.110;2023-04-01T13:53:29;99079.41;;;11.15
41654;BMP280;68687;52.030;7.110;2023-04-01T14:10:43;99099.78;;;11.41
41654;BMP280;68687;52.030;7.110;2023-04-01T14:13:17;99103.41;;;11.46
41654;BMP280;68687;52.030;7.110;2023-04-01T14:15:58;99097.31;;;11.39
41654;BMP280;68687;52.030;7.110;2023-04-01T14:24:23;99112.97;;;11.42
41654;BMP280;68687;52.030;7.110;2023-04-01T14:27:13;99114.94;;;11.35
41654;BMP280;68687;52.030;7.110;2023-04-01T14:29:57;99122.31;;;11.40
41654;BMP280;68687;52.030;7.110;2023-04-01T14:41:26;99146.78;;;11.13
41654;BMP280;68687;52.030;7.110;2023-04-01T14:46:50;99148.47;;;10.90
41654;BMP280;68687;52.030;7.110;2023-04-01T14:49:28;99149.06;;;10.92
41654;BMP280;68687;52.030;7.110;2023-04-01T14:52:04;99159.78;;;10.98
41654;BMP280;68687;52.030;7.110;2023-04-01T14:54:34;99159.38;;;10.95
41654;BMP280;68687;52.030;7.110;2023-04-01T14:57:11;99158.34;;;10.96
41654;BMP280;68687;52.030;7.110;2023-04-01T14:59:53;99166.41;;;10.96
41654;BMP280;68687;52.030;7.110;2023-04-01T15:08:06;99180.53;;;10.84
41654;BMP280;68687;52.030;7.110;2023-04-01T15:13:52;99190.00;;;10.87
41654;BMP280;68687;52.030;7.110;2023-04-01T15:16:27;99198.94;;;10.81
41654;BMP280;68687;52.030;7.110;2023-04-01T15:33:23;99232.72;;;10.64
41654;BMP280;68687;52.030;7.110;2023-04-01T15:38:33;99244.34;;;10.58
41654;BMP280;68687;52.030;7.110;2023-04-01T15:41:10;99251.81;;;10.49
41654;BMP280;68687;52.030;7.110;2023-04-01T15:43:46;99249.31;;;10.54
41654;BMP280;68687;52.030;7.110;2023-04-01T15:52:16;99257.97;;;10.56
41654;BMP280;68687;52.030;7.110;2023-04-01T16:11:25;99300.94;;;10.49
41654;BMP280;68687;52.030;7.110;2023-04-01T16:14:34;99305.09;;;10.45
41654;BMP280;68687;52.030;7.110;2023-04-01T16:20:22;99313.38;;;10.37
41654;BMP280;68687;52.030;7.110;2023-04-01T16:22:57;99314.25;;;10.31
41654;BMP280;68687;52.030;7.110;2023-04-01T16:25:44;99318.34;;;10.34
41654;BMP280;68687;52.030;7.110;2023-04-01T16:30:46;99333.25;;;10.23
41654;BMP280;68687;52.030;7.110;2023-04-01T16:33:20;99329.78;;;10.03
41654;BMP280;68687;52.030;7.110;2023-04-01T16:35:59;99334.53;;;10.01
41654;BMP280;68687;52.030;7.110;2023-04-01T16:41:20;99349.00;;;9.93
41654;BMP280;68687;52.030;7.110;2023-04-01T16:44:27;99357.25;;;9.85
41654;BMP280;68687;52.030;7.110;2023-04-01T16:46:58;99358.53;;;9.69
41654;BMP280;68687;52.030;7.110;2023-04-01T16:49:36;99365.13;;;9.73
41654;BMP280;68687;52.030;7.110;2023-04-01T16:54:31;99383.69;;;9.48
41654;BMP280;68687;52.030;7.110;2023-04-01T16:59:36;99400.59;;;9.42
41654;BMP280;68687;52.030;7.110;2023-04-01T17:05:06;99410.47;;;9.28
41654;BMP280;68687;52.030;7.110;2023-04-01T17:10:31;99415.41;;;9.18
41654;BMP280;68687;52.030;7.110;2023-04-01T17:13:14;99422.81;;;9.23
41654;BMP280;68687;52.030;7.110;2023-04-01T17:15:43;99424.06;;;9.14
41654;BMP280;68687;52.030;7.110;2023-04-01T17:18:23;99439.50;;;9.12
41654;BMP280;68687;52.030;7.110;2023-04-01T17:21:04;99433.94;;;9.07
41654;BMP280;68687;52.030;7.110;2023-04-01T17:23:36;99449.31;;;8.98
41654;BMP280;68687;52.030;7.110;2023-04-01T17:31:10;99470.09;;;8.89
41654;BMP280;68687;52.030;7.110;2023-04-01T17:42:24;99494.72;;;8.72
41654;BMP280;68687;52.030;7.110;2023-04-01T17:44:58;99499.03;;;8.66
41654;BMP280;68687;52.030;7.110;2023-04-01T17:47:36;99514.03;;;8.60
41654;BMP280;68687;52.030;7.110;2023-04-01T17:50:22;99520.19;;;8.61
41654;BMP280;68687;52.030;7.110;2023-04-01T17:53:07;99516.47;;;8.55
41654;BMP280;68687;52.030;7.110;2023-04-01T17:58:32;99542.41;;;8.55
41654;BMP280;68687;52.030;7.110;2023-04-01T18:01:09;99546.50;;;8.51
41654;BMP280;68687;52.030;7.110;2023-04-01T18:04:07;99556.91;;;8.46
41654;BMP280;68687;52.030;7.110;2023-04-01T18:06:40;99563.19;;;8.31
41654;BMP280;68687;52.030;7.110;2023-04-01T18:09:59;99571.34;;;8.23
41654;BMP280;68687;52.030;7.110;2023-04-01T18:12:40;99577.91;;;8.21
41654;BMP280;68687;52.030;7.110;2023-04-01T18:15:15;99580.56;;;8.21
41654;BMP280;68687;52.030;7.110;2023-04-01T18:25:44;99617.75;;;8.16
41654;BMP280;68687;52.030;7.110;2023-04-01T18:28:44;99616.19;;;8.00
41654;BMP280;68687;52.030;7.110;2023-04-01T18:31:17;99627.06;;;7.98
41654;BMP280;68687;52.030;7.110;2023-04-01T18:36:33;99643.59;;;7.87
41654;BMP280;68687;52.030;7.110;2023-04-01T18:39:15;99639.31;;;7.93
41654;BMP280;68687;52.030;7.110;2023-04-01T18:42:07;99652.63;;;7.86
41654;BMP280;68687;52.030;7.110;2023-04-01T18:44:48;99659.19;;;7.84
41654;BMP280;68687;52.030;7.110;2023-04-01T18:50:36;99675.34;;;7.75
41654;BMP280;68687;52.030;7.110;2023-04-01T18:56:11;99687.88;;;7.60
41654;BMP280;68687;52.030;7.110;2023-04-01T19:01:26;99702.25;;;7.59
41654;BMP280;68687;52.030;7.110;2023-04-01T19:04:00;99705.94;;;7.58
41654;BMP280;68687;52.030;7.110;2023-04-01T19:06:51;99718.50;;;7.43
41654;BMP280;68687;52.030;7.110;2023-04-01T19:09:44;99727.34;;;7.43
41654;BMP280;68687;52.030;7.110;2023-04-01T19:15:44;99736.97;;;7.30
41654;BMP280;68687;52.030;7.110;2023-04-01T19:18:26;99749.69;;;7.28
41654;BMP280;68687;52.030;7.110;2023-04-01T19:21:07;99753.00;;;7.15
41654;BMP280;68687;52.030;7.110;2023-04-01T19:26:27;99765.34;;;7.16
41654;BMP280;68687;52.030;7.110;2023-04-01T19:31:50;99775.38;;;7.14
41654;BMP280;68687;52.030;7.110;2023-04-01T19:34:22;99787.28;;;7.03
41654;BMP280;68687;52.030;7.110;2023-04-01T19:37:27;99778.09;;;7.06
41654;BMP280;68687;52.030;7.110;2023-04-01T19:40:15;99797.31;;;7.01
41654;BMP280;68687;52.030;7.110;2023-04-01T19:42:56;99790.69;;;6.97
41654;BMP280;68687;52.030;7.110;2023-04-01T19:51:09;99814.34;;;7.00
41654;BMP280;68687;52.030;7.110;2023-04-01T19:53:55;99822.16;;;7.02
41654;BMP280;68687;52.030;7.110;2023-04-01T19:56:24;99825.75;;;6.94
41654;BMP280;68687;52.030;7.110;2023-04-01T19:59:04;99830.31;;;6.86
41654;BMP280;68687;52.030;7.110;2023-04-01T20:01:41;99842.53;;;6.80
41654;BMP280;68687;52.030;7.110;2023-04-01T20:04:38;99841.88;;;6.78
41654;BMP280;68687;52.030;7.110;2023-04-01T20:07:30;99855.38;;;6.76
41654;BMP280;68687;52.030;7.110;2023-04-01T20:12:57;99861.72;;;6.75
41654;BMP280;68687;52.030;7.110;2023-04-01T20:15:39;99873.28;;;6.68
41654;BMP280;68687;52.030;7.110;2023-04-01T20:18:15;99880.53;;;6.59
41654;BMP280;68687;52.030;7.110;2023-04-01T20:20:58;99890.03;;;6.54
41654;BMP280;68687;52.030;7.110;2023-04-01T20:23:50;99896.38;;;6.53
41654;BMP280;68687;52.030;7.110;2023-04-01T20:26:45;99904.06;;;6.47
41654;BMP280;68687;52.030;7.110;2023-04-01T20:34:50;99930.78;;;6.39
41654;BMP280;68687;52.030;7.110;2023-04-01T20:37:52;99929.41;;;6.43
41654;BMP280;68687;52.030;7.110;2023-04-01T20:40:26;99925.22;;;6.49
41654;BMP280;68687;52.030;7.110;2023-04-01T20:43:14;99938.06;;;6.45
41654;BMP280;68687;52.030;7.110;2023-04-01T20:46:00;99955.59;;;6.40
41654;BMP280;68687;52.030;7.110;2023-04-01T20:51:23;99958.84;;;6.19
41654;BMP280;68687;52.030;7.110;2023-04-01T20:54:21;99953.97;;;6.23
41654;BMP280;68687;52.030;7.110;2023-04-01T20:57:08;99966.47;;;6.22
41654;BMP280;68687;52.030;7.110;2023-04-01T21:05:22;99986.50;;;6.10
41654;BMP280;68687;52.030;7.110;2023-04-01T21:08:21;99982.84;;;6.11
41654;BMP280;68687;52.030;7.110;2023-04-01T21:13:56;99998.84;;;6.11
41654;BMP280;68687;52.030;7.110;2023-04-01T21:16:41;100006.31;;;6.15
41654;BMP280;68687;52.030;7.110;2023-04-01T21:36:01;100050.47;;;5.94
41654;BMP280;68687;52.030;7.110;2023-04-01T21:41:48;100059.28;;;5.86
41654;BMP280;68687;52.030;7.110;2023-04-01T21:47:30;100078.44;;;5.81
41654;BMP280;68687;52.030;7.110;2023-04-01T21:51:01;100093.06;;;5.77
41654;BMP280;68687;52.030;7.110;2023-04-01T21:56:48;100095.72;;;5.69
41654;BMP280;68687;52.030;7.110;2023-04-01T21:59:45;100107.34;;;5.68
41654;BMP280;68687;52.030;7.110;2023-04-01T22:05:49;100111.84;;;5.68
41654;BMP280;68687;52.030;7.110;2023-04-01T22:11:24;100132.66;;;5.64
41654;BMP280;68687;52.030;7.110;2023-04-01T22:16:50;100138.97;;;5.71
41654;BMP280;68687;52.030;7.110;2023-04-01T22:22:21;100155.28;;;5.60
41654;BMP280;68687;52.030;7.110;2023-04-01T22:25:03;100170.44;;;5.68
41654;BMP280;68687;52.030;7.110;2023-04-01T22:30:14;100179.75;;;5.55
41654;BMP280;68687;52.030;7.110;2023-04-01T22:32:49;100183.06;;;5.49